KEOK/EOK METAR and TAF weather

Enter ICAO airport designator
Station Type Date Time Source
KEOK METAR 2019/08/24 18:55 UTC NOAA

KEOK 241855Z AUTO 12012KT 10SM FEW050 24/13 A3016 RMK AO2


Station Type Date Time Source
KEOK Decoded METAR 2019/08/24 18:55 UTC NOAA

Station name not available
Aug 24, 2019 - 02:55 PM EDT / 2019.08.24 1855 UTC
Wind: from the ESE (120 degrees) at 14 MPH (12 KT):0
Visibility: 10 mile(s):0
Sky conditions: mostly clear
Temperature: 75 F (24 C)
Dew Point: 55 F (13 C)
Relative Humidity: 50%
Pressure (altimeter): 30.16 in. Hg (1021 hPa)
ob: KEOK 241855Z AUTO 12012KT 10SM FEW050 24/13 A3016 RMK AO2
cycle: 19

Station Type Date Time Source
KEOK TAF UTC NOAA

Error!

Example: see airport list